createdAt,value
2016-08-05T00:00:49.040Z,18.63
2016-08-05T00:01:49.041Z,18.62
2016-08-05T00:02:49.036Z,18.57
2016-08-05T00:03:49.043Z,18.57
2016-08-05T00:04:49.034Z,18.66
2016-08-05T00:05:49.045Z,18.57
2016-08-05T00:06:49.037Z,18.62
2016-08-05T00:07:49.028Z,18.57
2016-08-05T00:08:49.026Z,18.57
2016-08-05T00:09:49.035Z,18.58
2016-08-05T00:10:49.029Z,18.6
2016-08-05T00:11:49.031Z,18.58
2016-08-05T00:12:49.031Z,18.57
2016-08-05T00:13:49.026Z,18.6
2016-08-05T00:14:49.026Z,18.51
2016-08-05T00:15:49.029Z,18.57
2016-08-05T00:16:49.027Z,18.51
2016-08-05T00:17:50.541Z,18.57
2016-08-05T00:18:50.263Z,18.52
2016-08-05T00:20:49.500Z,18.57
2016-08-05T00:21:49.280Z,18.47
2016-08-05T00:22:49.021Z,18.5
2016-08-05T00:23:49.038Z,18.45
2016-08-05T00:24:49.019Z,18.52
2016-08-05T00:25:49.014Z,18.5
2016-08-05T00:27:51.990Z,18.47
2016-08-05T00:28:50.392Z,18.54
2016-08-05T00:29:49.013Z,18.42
2016-08-05T00:30:49.026Z,18.47
2016-08-05T00:31:49.005Z,18.39
2016-08-05T00:32:49.723Z,18.52
2016-08-05T00:33:49.008Z,18.45
2016-08-05T00:34:49.014Z,18.41
2016-08-05T00:35:49.012Z,18.41
2016-08-05T00:36:49.000Z,18.44
2016-08-05T00:37:49.010Z,18.35
2016-08-05T00:38:49.010Z,18.32
2016-08-05T00:39:49.011Z,18.3
2016-08-05T00:40:49.004Z,18.39
2016-08-05T00:41:48.995Z,18.27
2016-08-05T00:42:49.002Z,18.3
2016-08-05T00:43:49.000Z,18.25
2016-08-05T00:44:48.992Z,18.27
2016-08-05T00:45:48.993Z,18.2
2016-08-05T00:46:48.991Z,18.29
2016-08-05T00:47:48.995Z,18.18
2016-08-05T00:48:48.991Z,18.25
2016-08-05T00:49:48.996Z,18.32
2016-08-05T00:50:48.994Z,18.25
2016-08-05T00:51:48.992Z,18.23
2016-08-05T00:52:48.985Z,18.2
2016-08-05T00:53:48.986Z,18.15
2016-08-05T00:54:48.984Z,18.05
2016-08-05T00:55:48.978Z,17.9
2016-08-05T00:56:48.979Z,17.77
2016-08-05T00:57:50.680Z,17.82
2016-08-05T00:58:50.729Z,17.86
2016-08-05T01:00:04.292Z,17.84
2016-08-05T01:00:48.984Z,17.77
2016-08-05T01:01:48.976Z,17.78
2016-08-05T01:02:48.976Z,17.81
2016-08-05T01:03:48.968Z,17.74
2016-08-05T01:04:48.973Z,17.62
2016-08-05T01:05:48.977Z,17.72
2016-08-05T01:06:49.568Z,17.72
2016-08-05T01:07:50.066Z,17.78
2016-08-05T01:08:48.957Z,17.79
2016-08-05T01:09:48.973Z,17.87
2016-08-05T01:10:49.109Z,17.87
2016-08-05T01:11:49.263Z,17.89
2016-08-05T01:12:48.953Z,17.95
2016-08-05T01:13:49.164Z,17.89
2016-08-05T01:14:48.957Z,17.74
2016-08-05T01:15:48.951Z,17.84
2016-08-05T01:16:48.959Z,17.87
2016-08-05T01:17:48.948Z,17.82
2016-08-05T01:18:48.949Z,17.79
2016-08-05T01:19:48.949Z,17.89
2016-08-05T01:20:48.940Z,17.77
2016-08-05T01:21:48.940Z,17.75
2016-08-05T01:22:48.940Z,17.78
2016-08-05T01:23:48.939Z,17.78
2016-08-05T01:24:48.945Z,17.78
2016-08-05T01:25:48.932Z,17.64
2016-08-05T01:26:48.934Z,17.71
2016-08-05T01:27:48.930Z,17.68
2016-08-05T01:28:48.931Z,17.64
2016-08-05T01:29:48.941Z,17.62
2016-08-05T01:30:48.930Z,17.58
2016-08-05T01:31:48.922Z,17.55
2016-08-05T01:32:48.924Z,17.46
2016-08-05T01:33:48.920Z,17.43
2016-08-05T01:34:48.927Z,17.54
2016-08-05T01:36:52.144Z,17.41
2016-08-05T01:37:48.915Z,17.28
2016-08-05T01:38:49.699Z,17.33
2016-08-05T01:39:48.918Z,17.22
2016-08-05T01:40:48.911Z,17.28
2016-08-05T01:41:49.206Z,17.14
2016-08-05T01:42:48.913Z,17.06
2016-08-05T01:43:48.911Z,17.15
2016-08-05T01:44:50.431Z,17.14
2016-08-05T01:45:49.686Z,17.18
2016-08-05T01:46:48.997Z,17.18
2016-08-05T01:47:48.899Z,17.18
2016-08-05T01:48:49.592Z,17.12
2016-08-05T01:49:50.024Z,17.16
2016-08-05T01:50:49.429Z,17.22
2016-08-05T01:51:48.898Z,17.21
2016-08-05T01:52:48.895Z,17.23
2016-08-05T01:53:48.893Z,17.03
2016-08-05T01:54:48.882Z,17.03
2016-08-05T01:55:48.886Z,17.03
2016-08-05T01:56:48.886Z,17.01
2016-08-05T01:57:48.897Z,16.98
2016-08-05T01:58:48.879Z,16.96
2016-08-05T01:59:48.880Z,16.96
2016-08-05T02:00:48.974Z,16.93
2016-08-05T02:01:48.867Z,16.94
2016-08-05T02:02:48.870Z,16.93
2016-08-05T02:03:48.866Z,16.94
2016-08-05T02:04:48.873Z,16.89
2016-08-05T02:05:48.865Z,16.85
2016-08-05T02:06:48.866Z,16.73
2016-08-05T02:07:48.858Z,16.61
2016-08-05T02:08:48.857Z,16.57
2016-08-05T02:09:48.857Z,16.5
2016-08-05T02:10:48.855Z,16.46
2016-08-05T02:11:48.849Z,16.42
2016-08-05T02:12:48.855Z,16.39
2016-08-05T02:13:48.847Z,16.35
2016-08-05T02:14:48.844Z,16.3
2016-08-05T02:16:03.757Z,16.28
2016-08-05T02:17:49.291Z,16.31
2016-08-05T02:18:48.847Z,16.43
2016-08-05T02:19:48.834Z,16.35
2016-08-05T02:20:48.840Z,16.35
2016-08-05T02:21:48.823Z,16.45
2016-08-05T02:22:48.978Z,16.52
2016-08-05T02:23:48.822Z,16.49
2016-08-05T02:24:49.982Z,16.56
2016-08-05T02:25:49.116Z,16.66
2016-08-05T02:26:48.824Z,16.5
2016-08-05T02:27:48.814Z,16.64
2016-08-05T02:28:48.823Z,16.68
2016-08-05T02:29:48.813Z,16.7
2016-08-05T02:30:48.817Z,16.79
2016-08-05T02:31:48.815Z,16.68
2016-08-05T02:32:48.807Z,16.75
2016-08-05T02:33:49.490Z,16.76
2016-08-05T02:34:48.808Z,16.71
2016-08-05T02:35:48.794Z,16.71
2016-08-05T02:36:48.802Z,16.73
2016-08-05T02:37:48.792Z,16.75
2016-08-05T02:38:48.792Z,16.71
2016-08-05T02:39:48.789Z,16.71
2016-08-05T02:40:49.486Z,16.68
2016-08-05T02:41:48.785Z,16.73
2016-08-05T02:42:48.776Z,16.71
2016-08-05T02:43:48.776Z,16.71
2016-08-05T02:44:48.777Z,16.7
2016-08-05T02:45:48.774Z,16.5
2016-08-05T02:46:48.773Z,16.58
2016-08-05T02:47:48.772Z,16.43
2016-08-05T02:48:48.768Z,16.33
2016-08-05T02:49:48.767Z,16.21
2016-08-05T02:50:48.762Z,16.12
2016-08-05T02:51:48.760Z,16.07
2016-08-05T02:52:48.759Z,16.08
2016-08-05T02:53:48.755Z,16.05
2016-08-05T02:54:48.766Z,16.12
2016-08-05T02:55:48.751Z,16.15
2016-08-05T02:56:48.753Z,16.12
2016-08-05T02:57:48.745Z,16.12
2016-08-05T02:58:48.736Z,16.09
2016-08-05T02:59:48.743Z,16.07
2016-08-05T03:00:48.754Z,16.04
2016-08-05T03:01:48.733Z,16.09
2016-08-05T03:02:48.734Z,16.05
2016-08-05T03:03:48.730Z,16.09
2016-08-05T03:04:48.728Z,16.15
2016-08-05T03:05:48.730Z,16.17
2016-08-05T03:06:48.728Z,16.14
2016-08-05T03:07:48.728Z,16.09
2016-08-05T03:08:48.712Z,16.2
2016-08-05T03:09:48.722Z,16.31
2016-08-05T03:10:48.715Z,16.23
2016-08-05T03:11:48.706Z,16.38
2016-08-05T03:12:48.712Z,16.33
2016-08-05T03:13:48.703Z,16.24
2016-08-05T03:14:48.699Z,16.39
2016-08-05T03:15:48.697Z,16.33
2016-08-05T03:16:48.698Z,16.38
2016-08-05T03:17:48.695Z,16.43
2016-08-05T03:18:48.695Z,16.33
2016-08-05T03:19:48.688Z,16.41
2016-08-05T03:20:48.687Z,16.45
2016-08-05T03:21:48.688Z,16.46
2016-08-05T03:22:48.679Z,16.46
2016-08-05T03:23:48.683Z,16.41
2016-08-05T03:24:48.672Z,16.5
2016-08-05T03:25:48.672Z,16.52
2016-08-05T03:26:48.667Z,16.52
2016-08-05T03:27:48.664Z,16.6
2016-08-05T03:28:48.672Z,16.63
2016-08-05T03:29:48.668Z,16.6
2016-08-05T03:30:48.661Z,16.58
2016-08-05T03:31:48.655Z,16.52
2016-08-05T03:32:48.653Z,16.57
2016-08-05T03:35:03.567Z,16.49
2016-08-05T03:35:48.646Z,16.61
2016-08-05T03:36:48.803Z,16.56
2016-08-05T03:37:48.844Z,16.56
2016-08-05T03:38:48.646Z,16.58
2016-08-05T03:39:48.636Z,16.48
2016-08-05T03:40:48.635Z,16.57
2016-08-05T03:41:48.633Z,16.52
2016-08-05T03:42:49.085Z,16.49
2016-08-05T03:44:03.904Z,16.53
2016-08-05T03:44:49.277Z,16.52
2016-08-05T03:45:48.631Z,16.5
2016-08-05T03:46:48.629Z,16.5
2016-08-05T03:47:48.616Z,16.5
2016-08-05T03:48:48.631Z,16.49
2016-08-05T03:49:48.615Z,16.43
2016-08-05T03:50:48.609Z,16.39
2016-08-05T03:51:48.612Z,16.43
2016-08-05T03:52:48.610Z,16.38
2016-08-05T03:53:49.738Z,16.38
2016-08-05T03:55:48.902Z,16.35
2016-08-05T03:56:48.668Z,16.35
2016-08-05T03:57:50.119Z,16.33
2016-08-05T03:58:48.597Z,16.33
2016-08-05T03:59:48.590Z,16.27
2016-08-05T04:00:48.683Z,16.23
2016-08-05T04:01:48.585Z,16.34
2016-08-05T04:02:50.105Z,16.21
2016-08-05T04:03:48.654Z,16.31
2016-08-05T04:04:49.113Z,16.28
2016-08-05T04:05:49.386Z,16.21
2016-08-05T04:06:49.234Z,16.23
2016-08-05T04:07:48.570Z,16.21
2016-08-05T04:08:48.574Z,16.23
2016-08-05T04:09:48.566Z,16.23
2016-08-05T04:10:48.565Z,16.15
2016-08-05T04:11:48.562Z,16.15
2016-08-05T04:12:48.554Z,16.08
2016-08-05T04:13:48.555Z,16.12
2016-08-05T04:14:48.552Z,16.11
2016-08-05T04:15:48.549Z,16.12
2016-08-05T04:16:48.550Z,16.12
2016-08-05T04:17:48.546Z,16.07
2016-08-05T04:18:48.541Z,16.2
2016-08-05T04:19:48.541Z,16.2
2016-08-05T04:20:48.543Z,16.2
2016-08-05T04:21:48.540Z,16.11
2016-08-05T04:22:48.536Z,16.07
2016-08-05T04:23:48.536Z,16.07
2016-08-05T04:24:48.541Z,16.08
2016-08-05T04:26:49.213Z,16.08
2016-08-05T04:27:48.514Z,16.07
2016-08-05T04:28:48.511Z,16
2016-08-05T04:29:48.517Z,16.09
2016-08-05T04:30:48.513Z,16.14
2016-08-05T04:31:48.512Z,16.09
2016-08-05T04:32:48.520Z,16.07
2016-08-05T04:33:48.499Z,16.11
2016-08-05T04:34:48.504Z,16.07
2016-08-05T04:35:48.506Z,16.08
2016-08-05T04:36:48.492Z,16.11
2016-08-05T04:37:48.492Z,16.07
2016-08-05T04:38:48.501Z,16.05
2016-08-05T04:39:48.481Z,16.07
2016-08-05T04:41:48.495Z,16.08
2016-08-05T04:42:48.479Z,16.12
2016-08-05T04:43:48.469Z,16.09
2016-08-05T04:44:48.475Z,16.04
2016-08-05T04:45:48.478Z,16.15
2016-08-05T04:46:48.469Z,16.21
2016-08-05T04:47:48.471Z,16.17
2016-08-05T04:48:48.465Z,16.11
2016-08-05T04:49:48.470Z,16.2
2016-08-05T04:50:48.466Z,16.12
2016-08-05T04:51:48.454Z,16.17
2016-08-05T04:53:03.673Z,16.2
2016-08-05T04:54:04.322Z,16.21
2016-08-05T04:54:48.692Z,16.2
2016-08-05T04:57:48.457Z,16.27
2016-08-05T04:58:48.538Z,16.25
2016-08-05T04:59:48.429Z,16.2
2016-08-05T05:00:48.431Z,16.21
2016-08-05T05:01:49.638Z,16.21
2016-08-05T05:02:49.093Z,16.2
2016-08-05T05:03:48.420Z,16.28
2016-08-05T05:04:49.468Z,16.09
2016-08-05T05:05:49.318Z,16.15
2016-08-05T05:06:48.414Z,16.15
2016-08-05T05:07:48.411Z,16.12
2016-08-05T05:08:48.410Z,16.08
2016-08-05T05:09:48.409Z,16.21
2016-08-05T05:11:49.918Z,16.2
2016-08-05T05:12:49.573Z,16.17
2016-08-05T05:13:48.447Z,16.17
2016-08-05T05:14:49.148Z,16.15
2016-08-05T05:15:48.563Z,16.23
2016-08-05T05:16:48.388Z,16.21
2016-08-05T05:17:48.629Z,16.15
2016-08-05T05:18:48.824Z,16.23
2016-08-05T05:19:48.382Z,16.14
2016-08-05T05:20:48.383Z,16.2
2016-08-05T05:21:49.240Z,16.2
2016-08-05T05:22:48.774Z,16.09
2016-08-05T05:23:48.376Z,16.23
2016-08-05T05:24:48.370Z,16.23
2016-08-05T05:25:48.370Z,16.2
2016-08-05T05:26:48.945Z,16.25
2016-08-05T05:27:48.371Z,16.27
2016-08-05T05:28:48.364Z,16.2
2016-08-05T05:29:48.354Z,16.21
2016-08-05T05:30:48.360Z,16.14
2016-08-05T05:31:48.354Z,16.08
2016-08-05T05:32:48.352Z,16.07
2016-08-05T05:33:48.346Z,16.02
2016-08-05T05:34:48.344Z,16.08
2016-08-05T05:35:48.337Z,16.08
2016-08-05T05:36:48.347Z,15.96
2016-08-05T05:37:48.335Z,16
2016-08-05T05:38:48.330Z,15.97
2016-08-05T05:39:48.333Z,16.07
2016-08-05T05:40:48.333Z,16
2016-08-05T05:41:48.331Z,16.02
2016-08-05T05:42:48.326Z,16.05
2016-08-05T05:43:48.325Z,16.07
2016-08-05T05:44:48.327Z,16.01
2016-08-05T05:45:48.331Z,16
2016-08-05T05:46:48.308Z,16.07
2016-08-05T05:47:48.309Z,15.94
2016-08-05T05:48:48.309Z,15.97
2016-08-05T05:49:48.313Z,16
2016-08-05T05:50:48.302Z,15.96
2016-08-05T05:51:48.302Z,16.01
2016-08-05T05:52:48.302Z,16.02
2016-08-05T05:53:48.299Z,16.02
2016-08-05T05:54:48.300Z,16
2016-08-05T05:55:48.292Z,15.96
2016-08-05T05:56:48.292Z,15.97
2016-08-05T05:57:48.294Z,16.04
2016-08-05T05:58:48.287Z,16.05
2016-08-05T05:59:48.282Z,16.08
2016-08-05T06:00:48.381Z,16.14
2016-08-05T06:01:48.288Z,16.15
2016-08-05T06:02:48.289Z,16.25
2016-08-05T06:03:48.276Z,16.17
2016-08-05T06:04:48.272Z,16.23
2016-08-05T06:05:48.270Z,16.12
2016-08-05T06:06:48.265Z,16.11
2016-08-05T06:07:48.255Z,16.12
2016-08-05T06:08:48.262Z,16.12
2016-08-05T06:09:48.257Z,16.14
2016-08-05T06:10:49.104Z,15.97
2016-08-05T06:11:48.262Z,15.94
2016-08-05T06:12:48.544Z,16
2016-08-05T06:14:03.159Z,16.04
2016-08-05T06:14:48.252Z,16.05
2016-08-05T06:15:48.237Z,15.94
2016-08-05T06:16:48.234Z,16.09
2016-08-05T06:17:48.238Z,16.05
2016-08-05T06:18:48.236Z,16.08
2016-08-05T06:19:49.329Z,16.01
2016-08-05T06:20:48.480Z,16.08
2016-08-05T06:21:48.230Z,16.02
2016-08-05T06:23:03.140Z,15.96
2016-08-05T06:23:48.421Z,15.97
2016-08-05T06:24:48.971Z,16.08
2016-08-05T06:25:48.364Z,16.07
2016-08-05T06:26:48.217Z,15.96
2016-08-05T06:27:48.210Z,15.97
2016-08-05T06:28:48.215Z,16
2016-08-05T06:29:48.214Z,16
2016-08-05T06:30:49.250Z,16
2016-08-05T06:31:49.271Z,15.97
2016-08-05T06:32:49.021Z,15.96
2016-08-05T06:33:49.349Z,16.04
2016-08-05T06:34:48.191Z,16.04
2016-08-05T06:35:49.105Z,16.09
2016-08-05T06:36:48.183Z,16.07
2016-08-05T06:37:48.188Z,16.08
2016-08-05T06:38:48.185Z,16.05
2016-08-05T06:39:51.290Z,16.11
2016-08-05T06:41:48.195Z,16.11
2016-08-05T06:42:49.043Z,16.24
2016-08-05T06:43:48.172Z,16.24
2016-08-05T06:44:48.176Z,16.33
2016-08-05T06:45:48.511Z,16.31
2016-08-05T06:46:48.167Z,16.46
2016-08-05T06:47:48.167Z,16.48
2016-08-05T06:48:48.157Z,16.49
2016-08-05T06:49:48.149Z,16.48
2016-08-05T06:50:48.149Z,16.49
2016-08-05T06:51:48.156Z,16.6
2016-08-05T06:52:48.150Z,16.57
2016-08-05T06:53:48.146Z,16.58
2016-08-05T06:54:48.149Z,16.56
2016-08-05T06:55:48.142Z,16.6
2016-08-05T06:56:48.138Z,16.49
2016-08-05T06:57:48.145Z,16.35
2016-08-05T06:58:48.134Z,16.34
2016-08-05T06:59:48.128Z,16.41
2016-08-05T07:00:48.185Z,16.45
2016-08-05T07:01:48.135Z,16.49
2016-08-05T07:02:48.135Z,16.61
2016-08-05T07:03:48.136Z,16.67
2016-08-05T07:04:48.118Z,16.76
2016-08-05T07:05:48.124Z,16.89
2016-08-05T07:06:48.119Z,16.86
2016-08-05T07:07:48.115Z,16.96
2016-08-05T07:08:48.113Z,17
2016-08-05T07:09:48.115Z,17.06
2016-08-05T07:10:48.114Z,17.15
2016-08-05T07:11:48.115Z,17.12
2016-08-05T07:12:48.107Z,17.21
2016-08-05T07:13:48.104Z,17.19
2016-08-05T07:14:48.097Z,17.33
2016-08-05T07:15:48.099Z,17.37
2016-08-05T07:16:48.090Z,17.38
2016-08-05T07:17:48.100Z,17.33
2016-08-05T07:18:48.097Z,17.38
2016-08-05T07:19:48.091Z,17.4
2016-08-05T07:20:48.092Z,17.41
2016-08-05T07:21:48.087Z,17.36
2016-08-05T07:22:48.089Z,17.43
2016-08-05T07:23:48.086Z,17.48
2016-08-05T07:24:48.087Z,17.56
2016-08-05T07:25:48.079Z,17.49
2016-08-05T07:26:48.081Z,17.54
2016-08-05T07:27:48.789Z,17.54
2016-08-05T07:29:02.991Z,17.54
2016-08-05T07:29:48.481Z,17.55
2016-08-05T07:30:48.476Z,17.58
2016-08-05T07:31:48.326Z,17.64
2016-08-05T07:32:48.072Z,17.63
2016-08-05T07:33:48.217Z,17.68
2016-08-05T07:34:48.165Z,17.72
2016-08-05T07:35:48.071Z,17.75
2016-08-05T07:36:48.064Z,17.79
2016-08-05T07:38:04.079Z,17.89
2016-08-05T07:38:49.018Z,17.84
2016-08-05T07:39:48.065Z,17.89
2016-08-05T07:40:48.362Z,17.9
2016-08-05T07:41:48.309Z,17.89
2016-08-05T07:42:48.055Z,17.87
2016-08-05T07:43:48.056Z,17.99
2016-08-05T07:44:48.056Z,17.97
2016-08-05T07:45:48.160Z,18.12
2016-08-05T07:46:48.053Z,18.11
2016-08-05T07:47:48.053Z,18.12
2016-08-05T07:49:48.368Z,18.2
2016-08-05T07:50:49.156Z,18.2
2016-08-05T07:51:48.329Z,18.21
2016-08-05T07:52:49.230Z,18.18
2016-08-05T07:53:48.048Z,18.18
2016-08-05T07:54:48.043Z,18.2
2016-08-05T07:55:48.052Z,18.18
2016-08-05T07:56:48.043Z,18.21
2016-08-05T07:57:49.032Z,18.21
2016-08-05T07:59:48.194Z,18.05
2016-08-05T08:00:48.036Z,18.11
2016-08-05T08:01:49.381Z,18.08
2016-08-05T08:02:48.032Z,18.15
2016-08-05T08:03:48.029Z,18.15
2016-08-05T08:04:48.040Z,18.14
2016-08-05T08:05:48.038Z,18.17
2016-08-05T08:06:48.033Z,18.05
2016-08-05T08:07:48.041Z,18.05
2016-08-05T08:08:48.031Z,18.03
2016-08-05T08:09:48.048Z,18
2016-08-05T08:10:48.022Z,17.99
2016-08-05T08:11:48.029Z,17.93
2016-08-05T08:12:48.033Z,17.9
2016-08-05T08:13:48.020Z,17.92
2016-08-05T08:14:48.029Z,17.89
2016-08-05T08:15:48.719Z,17.79
2016-08-05T08:16:48.020Z,17.84
2016-08-05T08:17:48.024Z,17.74
2016-08-05T08:18:54.661Z,17.79
2016-08-05T08:19:48.017Z,17.78
2016-08-05T08:20:48.012Z,17.71
2016-08-05T08:21:48.017Z,17.7
2016-08-05T08:22:48.013Z,17.71
2016-08-05T08:23:48.012Z,17.71
2016-08-05T08:24:48.007Z,17.64
2016-08-05T08:25:48.018Z,17.62
2016-08-05T08:26:48.009Z,17.66
2016-08-05T08:27:48.019Z,17.63
2016-08-05T08:28:48.011Z,17.64
2016-08-05T08:29:48.011Z,17.56
2016-08-05T08:30:48.000Z,17.56
2016-08-05T08:31:48.001Z,17.62
2016-08-05T08:32:48.007Z,17.59
2016-08-05T08:33:48.010Z,17.63
2016-08-05T08:34:47.998Z,17.7
2016-08-05T08:35:47.993Z,17.74
2016-08-05T08:36:47.999Z,17.77
2016-08-05T08:37:47.996Z,17.9
2016-08-05T08:38:47.992Z,17.9
2016-08-05T08:39:47.989Z,18.03
2016-08-05T08:40:47.995Z,18.11
2016-08-05T08:41:48.001Z,18.2
2016-08-05T08:42:47.991Z,18.27
2016-08-05T08:43:47.994Z,18.39
2016-08-05T08:44:47.988Z,18.45
2016-08-05T08:45:47.985Z,18.44
2016-08-05T08:46:49.592Z,18.57
2016-08-05T08:48:02.912Z,18.75
2016-08-05T08:48:48.439Z,18.76
2016-08-05T08:49:48.292Z,18.82
2016-08-05T08:50:48.540Z,19.02
2016-08-05T08:51:48.834Z,18.99
2016-08-05T08:52:48.672Z,19.02
2016-08-05T08:53:47.979Z,19.04
2016-08-05T08:54:47.980Z,19.08
2016-08-05T08:55:49.079Z,19.25
2016-08-05T08:56:48.586Z,19.41
2016-08-05T08:57:48.182Z,19.47
2016-08-05T08:58:47.983Z,19.61
2016-08-05T08:59:47.976Z,19.5
2016-08-05T09:00:47.980Z,19.63
2016-08-05T09:01:48.433Z,19.71
2016-08-05T09:02:47.985Z,19.63
2016-08-05T09:03:47.989Z,19.77
2016-08-05T09:04:47.978Z,19.77
2016-08-05T09:05:47.980Z,19.87
2016-08-05T09:06:48.613Z,19.86
2016-08-05T09:07:50.762Z,19.96
2016-08-05T09:08:49.008Z,20.02
2016-08-05T09:09:49.172Z,20.06
2016-08-05T09:10:48.097Z,20.02
2016-08-05T09:11:47.989Z,20.11
2016-08-05T09:12:47.994Z,20.24
2016-08-05T09:13:47.992Z,20.28
2016-08-05T09:14:47.995Z,20.35
2016-08-05T09:15:48.610Z,20.52
2016-08-05T09:16:49.494Z,20.55
2016-08-05T09:17:48.238Z,20.61
2016-08-05T09:18:48.924Z,20.73
2016-08-05T09:19:48.279Z,20.7
2016-08-05T09:20:47.999Z,20.85
2016-08-05T09:21:48.236Z,20.89
2016-08-05T09:22:48.358Z,20.94
2016-08-05T09:23:47.996Z,20.99
2016-08-05T09:24:47.995Z,21.06
2016-08-05T09:25:48.008Z,21.14
2016-08-05T09:26:48.014Z,21.25
2016-08-05T09:27:48.000Z,21.38
2016-08-05T09:28:48.010Z,21.35
2016-08-05T09:29:48.009Z,21.35
2016-08-05T09:30:48.017Z,21.35
2016-08-05T09:31:48.011Z,21.38
2016-08-05T09:32:48.019Z,21.5
2016-08-05T09:33:48.019Z,21.62
2016-08-05T09:34:48.021Z,21.68
2016-08-05T09:35:48.024Z,21.77
2016-08-05T09:36:48.026Z,21.84
2016-08-05T09:37:48.028Z,21.92
2016-08-05T09:38:48.031Z,21.91
2016-08-05T09:39:48.034Z,22.03
2016-08-05T09:40:48.036Z,22.06
2016-08-05T09:41:48.044Z,22.21
2016-08-05T09:42:48.040Z,22.22
2016-08-05T09:43:48.046Z,22.22
2016-08-05T09:44:48.054Z,22.27
2016-08-05T09:45:48.044Z,22.33
2016-08-05T09:46:48.052Z,22.37
2016-08-05T09:47:48.057Z,22.35
2016-08-05T09:48:48.055Z,22.35
2016-08-05T09:49:48.080Z,22.33
2016-08-05T09:50:48.081Z,22.18
2016-08-05T09:51:48.073Z,22.28
2016-08-05T09:52:48.071Z,22.37
2016-08-05T09:53:48.076Z,22.37
2016-08-05T09:54:48.076Z,22.3
2016-08-05T09:55:48.090Z,22.36
2016-08-05T09:56:48.104Z,22.33
2016-08-05T09:57:48.090Z,22.3
2016-08-05T09:58:48.084Z,22.33
2016-08-05T09:59:49.091Z,22.37
2016-08-05T10:00:48.098Z,22.43
2016-08-05T10:01:48.102Z,22.57
2016-08-05T10:02:48.110Z,22.65
2016-08-05T10:03:48.116Z,22.82
2016-08-05T10:04:48.108Z,22.85
2016-08-05T10:05:49.875Z,23.04
2016-08-05T10:06:48.124Z,23.12
2016-08-05T10:07:48.720Z,23.22
2016-08-05T10:08:48.121Z,23.39
2016-08-05T10:09:48.133Z,23.57
2016-08-05T10:10:49.133Z,23.57
2016-08-05T10:11:48.131Z,23.66
2016-08-05T10:12:48.142Z,23.8
2016-08-05T10:13:48.150Z,23.79
2016-08-05T10:14:48.202Z,23.7
2016-08-05T10:16:03.073Z,23.66
2016-08-05T10:17:48.409Z,23.72
2016-08-05T10:19:48.178Z,23.69
2016-08-05T10:20:48.177Z,23.7
2016-08-05T10:21:48.189Z,23.83
2016-08-05T10:22:48.190Z,23.97
2016-08-05T10:23:48.205Z,24.12
2016-08-05T10:24:48.196Z,24.21
2016-08-05T10:25:49.531Z,24.24
2016-08-05T10:26:48.818Z,24.37
2016-08-05T10:27:49.985Z,24.37
2016-08-05T10:28:48.214Z,24.46
2016-08-05T10:29:48.221Z,24.53
2016-08-05T10:30:48.472Z,24.58
2016-08-05T10:31:48.233Z,24.65
2016-08-05T10:32:48.236Z,24.78
2016-08-05T10:33:48.237Z,24.96
2016-08-05T10:34:49.765Z,25.08
2016-08-05T10:35:48.255Z,25.27
2016-08-05T10:36:49.816Z,25.42
2016-08-05T10:37:48.267Z,25.55
2016-08-05T10:38:48.272Z,25.67
2016-08-05T10:39:49.261Z,25.72
2016-08-05T10:40:48.288Z,25.73
2016-08-05T10:41:48.277Z,25.77
2016-08-05T10:42:48.287Z,25.75
2016-08-05T10:43:48.300Z,25.82
2016-08-05T10:44:48.307Z,25.73
2016-08-05T10:45:48.312Z,25.85
2016-08-05T10:46:49.013Z,26.02
2016-08-05T10:47:48.339Z,26.02
2016-08-05T10:48:48.325Z,26.18
2016-08-05T10:49:48.338Z,26.25
2016-08-05T10:50:48.347Z,26.37
2016-08-05T10:51:49.042Z,26.5
2016-08-05T10:52:48.359Z,26.67
2016-08-05T10:53:48.365Z,26.67
2016-08-05T10:54:48.380Z,26.81
2016-08-05T10:55:48.380Z,26.92
2016-08-05T10:57:48.391Z,26.81
2016-08-05T10:58:48.397Z,26.85
2016-08-05T10:59:48.405Z,26.73
2016-08-05T11:00:48.414Z,26.67
2016-08-05T11:01:48.425Z,26.69
2016-08-05T11:02:48.434Z,26.66
2016-08-05T11:03:48.437Z,26.65
2016-08-05T11:04:48.439Z,26.72
2016-08-05T11:05:48.450Z,26.67
2016-08-05T11:06:48.453Z,26.85
2016-08-05T11:07:48.463Z,26.91
2016-08-05T11:08:48.464Z,27.04
2016-08-05T11:09:48.475Z,26.99
2016-08-05T11:10:48.481Z,27.1
2016-08-05T11:12:48.495Z,27.25
2016-08-05T11:13:48.513Z,27.37
2016-08-05T11:14:48.510Z,27.46
2016-08-05T11:15:48.519Z,27.44
2016-08-05T11:16:49.220Z,27.46
2016-08-05T11:17:48.535Z,27.4
2016-08-05T11:18:48.536Z,27.51
2016-08-05T11:19:48.543Z,27.62
2016-08-05T11:20:48.552Z,27.57
2016-08-05T11:21:48.565Z,27.54
2016-08-05T11:22:48.563Z,27.44
2016-08-05T11:23:49.282Z,27.29
2016-08-05T11:24:49.939Z,27.29
2016-08-05T11:25:48.892Z,27.27
2016-08-05T11:27:48.602Z,27.43
2016-08-05T11:28:48.617Z,27.62
2016-08-05T11:29:48.626Z,27.62
2016-08-05T11:30:48.623Z,27.63
2016-08-05T11:31:48.639Z,27.62
2016-08-05T11:32:49.737Z,27.59
2016-08-05T11:33:49.595Z,27.54
2016-08-05T11:34:48.957Z,27.74
2016-08-05T11:35:48.667Z,27.78
2016-08-05T11:36:49.471Z,27.84
2016-08-05T11:37:48.730Z,27.97
2016-08-05T11:38:49.189Z,28.06
2016-08-05T11:39:48.693Z,28.11
2016-08-05T11:40:48.701Z,28.12
2016-08-05T11:41:48.709Z,28.02
2016-08-05T11:42:48.709Z,28.11
2016-08-05T11:43:50.128Z,28.07
2016-08-05T11:44:50.159Z,28.09
2016-08-05T11:45:48.756Z,28.11
2016-08-05T11:46:50.328Z,28.14
2016-08-05T11:47:48.751Z,28.06
2016-08-05T11:48:48.761Z,28.03
2016-08-05T11:49:48.771Z,27.87
2016-08-05T11:50:48.877Z,27.88
2016-08-05T11:51:48.787Z,27.77
2016-08-05T11:52:50.317Z,27.69
2016-08-05T11:53:49.247Z,27.63
2016-08-05T11:54:51.639Z,27.74
2016-08-05T11:55:50.402Z,27.74
2016-08-05T11:56:49.514Z,27.75
2016-08-05T11:57:48.823Z,27.67
2016-08-05T11:58:48.836Z,27.72
2016-08-05T11:59:48.840Z,27.72
2016-08-05T12:00:48.847Z,27.84
2016-08-05T12:01:48.852Z,27.94
2016-08-05T12:02:48.864Z,28.06
2016-08-05T12:03:48.882Z,28.03
2016-08-05T12:04:48.880Z,28.11
2016-08-05T12:05:48.880Z,28.19
2016-08-05T12:06:48.891Z,28.25
2016-08-05T12:07:48.898Z,28.22
2016-08-05T12:08:48.901Z,28.27
2016-08-05T12:09:48.918Z,28.41
2016-08-05T12:10:48.918Z,28.44
2016-08-05T12:11:48.931Z,28.51
2016-08-05T12:12:48.941Z,28.37
2016-08-05T12:13:48.942Z,28.43
2016-08-05T12:14:48.957Z,28.31
2016-08-05T12:15:48.960Z,28.31
2016-08-05T12:16:48.981Z,28.31
2016-08-05T12:17:48.981Z,28.36
2016-08-05T12:18:48.985Z,28.4
2016-08-05T12:19:48.990Z,28.37
2016-08-05T12:20:49.001Z,28.36
2016-08-05T12:21:49.001Z,28.4
2016-08-05T12:22:49.024Z,28.4
2016-08-05T12:23:49.039Z,28.36
2016-08-05T12:24:49.030Z,28.24
2016-08-05T12:25:49.035Z,28.24
2016-08-05T12:26:49.052Z,28.15
2016-08-05T12:27:49.053Z,28.09
2016-08-05T12:28:49.054Z,28.12
2016-08-05T12:29:49.073Z,28
2016-08-05T12:30:49.087Z,28.03
2016-08-05T12:31:49.081Z,28.04
2016-08-05T12:32:49.088Z,28.03
2016-08-05T12:33:49.103Z,27.97
2016-08-05T12:34:49.101Z,28.03
2016-08-05T12:35:49.107Z,28.06
2016-08-05T12:36:49.122Z,28.15
2016-08-05T12:37:49.128Z,28.09
2016-08-05T12:38:49.130Z,28.14
2016-08-05T12:39:49.138Z,28.22
2016-08-05T12:40:49.145Z,28.29
2016-08-05T12:42:50.012Z,28.39
2016-08-05T12:44:49.231Z,28.36
2016-08-05T12:45:49.490Z,28.21
2016-08-05T12:46:49.640Z,28.22
2016-08-05T12:47:49.398Z,28.18
2016-08-05T12:48:49.216Z,28.24
2016-08-05T12:49:49.214Z,28.17
2016-08-05T12:51:04.147Z,28.11
2016-08-05T12:51:49.930Z,28.11
2016-08-05T12:52:49.597Z,28.14
2016-08-05T12:53:49.247Z,28.06
2016-08-05T12:54:49.351Z,27.88
2016-08-05T12:55:49.265Z,27.79
2016-08-05T12:56:49.273Z,27.77
2016-08-05T12:57:49.270Z,27.77
2016-08-05T12:58:49.281Z,27.65
2016-08-05T12:59:49.284Z,27.79
2016-08-05T13:00:49.295Z,27.79
2016-08-05T13:01:50.488Z,27.72
2016-08-05T13:03:50.621Z,27.75
2016-08-05T13:04:49.821Z,27.69
2016-08-05T13:05:50.228Z,27.77
2016-08-05T13:06:49.342Z,27.75
2016-08-05T13:07:49.349Z,27.67
2016-08-05T13:08:50.048Z,27.81
2016-08-05T13:09:49.410Z,27.7
2016-08-05T13:10:50.887Z,27.78
2016-08-05T13:11:50.497Z,27.72
2016-08-05T13:12:50.225Z,27.7
2016-08-05T13:13:49.864Z,27.74
2016-08-05T13:14:49.397Z,27.72
2016-08-05T13:15:49.407Z,27.57
2016-08-05T13:16:49.411Z,27.55
2016-08-05T13:17:49.419Z,27.5
2016-08-05T13:18:49.429Z,27.5